Time;durP1;ratioP1;P1;durP2;ratioP2;P2;SDS_P1;SDS_P2;PMS_P1;PMS_P2;Temp;Humidity;BMP_temperature;BMP_pressure;BME280_temperature;BME280_humidity;BME280_pressure;Samples;Min_cycle;Max_cycle;Signal;HPM_P1;HPM_P2
2024/04/11 00:00:10;;;;;;;10.33;4.07;;;5.00;99.90;;;;;;5468648;26;20212;-87
2024/04/11 00:02:36;;;;;;;11.10;4.47;;;5.00;99.90;;;;;;5471859;26;20008;-89
2024/04/11 00:05:03;;;;;;;11.53;3.60;;;4.90;99.90;;;;;;5470099;26;20010;-87
2024/04/11 00:07:29;;;;;;;6.00;4.10;;;4.90;99.90;;;;;;5467867;26;20067;-88
2024/04/11 00:09:54;;;;;;;6.57;3.73;;;4.90;99.90;;;;;;5467140;26;20501;-88
2024/04/11 00:12:20;;;;;;;11.27;4.33;;;4.90;99.90;;;;;;5466831;26;20006;-88
2024/04/11 00:14:45;;;;;;;10.23;4.30;;;4.90;99.90;;;;;;5465678;26;19994;-88
2024/04/11 00:17:12;;;;;;;9.57;4.50;;;4.80;99.90;;;;;;5434054;26;20052;-88
2024/04/11 00:19:38;;;;;;;7.47;4.23;;;4.80;99.90;;;;;;5466443;26;20113;-88
2024/04/11 00:22:08;;;;;;;6.60;3.63;;;4.70;99.90;;;;;;5466256;26;20470;-88
2024/04/11 00:24:35;;;;;;;10.67;3.93;;;4.70;99.90;;;;;;5466622;26;20018;-88
2024/04/11 00:27:00;;;;;;;7.10;3.70;;;4.60;99.90;;;;;;5466253;26;20734;-87
2024/04/11 00:29:26;;;;;;;6.97;3.83;;;4.50;99.90;;;;;;5435709;26;20006;-88
2024/04/11 00:31:52;;;;;;;7.27;3.60;;;4.50;99.90;;;;;;5466037;26;20017;-89
2024/04/11 00:34:23;;;;;;;6.73;3.37;;;4.40;99.90;;;;;;5466455;26;20010;-88
2024/04/11 00:36:53;;;;;;;7.07;3.90;;;4.40;99.90;;;;;;5467055;26;19998;-89
2024/04/11 00:39:20;;;;;;;7.20;3.80;;;4.30;99.90;;;;;;5466832;26;19994;-88
2024/04/11 00:41:47;;;;;;;8.53;4.17;;;4.30;99.90;;;;;;5465599;26;20396;-90
2024/04/11 00:44:16;;;;;;;7.70;4.27;;;4.30;99.90;;;;;;5466690;26;20037;-88
2024/04/11 00:46:42;;;;;;;8.53;3.80;;;4.30;99.90;;;;;;5465969;26;20002;-88
2024/04/11 00:49:08;;;;;;;6.97;3.77;;;4.30;99.90;;;;;;5466572;26;20002;-88
2024/04/11 00:51:34;;;;;;;12.00;4.33;;;4.30;99.90;;;;;;5465850;26;20014;-88
2024/04/11 00:54:00;;;;;;;8.70;3.40;;;4.30;99.90;;;;;;5467002;26;20009;-87
2024/04/11 00:56:26;;;;;;;11.53;3.80;;;4.30;99.90;;;;;;5466291;26;20564;-88
2024/04/11 00:58:52;;;;;;;7.17;3.87;;;4.20;99.90;;;;;;5466678;26;20002;-88
2024/04/11 01:01:18;;;;;;;7.93;3.87;;;4.20;99.90;;;;;;5466406;26;20016;-88
2024/04/11 01:03:47;;;;;;;5.67;3.43;;;4.20;99.90;;;;;;5466264;26;19998;-88
2024/04/11 01:06:13;;;;;;;10.40;4.23;;;4.20;99.90;;;;;;5464721;26;20013;-87
2024/04/11 01:08:41;;;;;;;9.30;3.77;;;4.20;99.90;;;;;;5466801;26;20027;-90
2024/04/11 01:11:07;;;;;;;8.03;3.40;;;4.20;99.90;;;;;;5464611;26;20534;-87
2024/04/11 01:13:34;;;;;;;12.90;3.90;;;4.20;99.90;;;;;;5464641;26;20081;-88
2024/04/11 01:16:03;;;;;;;10.53;4.17;;;4.20;99.90;;;;;;5464934;26;20436;-88
2024/04/11 01:18:29;;;;;;;6.80;3.97;;;4.20;99.90;;;;;;5433405;26;20009;-88
2024/04/11 01:20:55;;;;;;;9.90;4.13;;;4.20;99.90;;;;;;5463830;26;20086;-88
2024/04/11 01:23:22;;;;;;;5.17;4.03;;;4.20;99.90;;;;;;5465907;26;21743;-87
2024/04/11 01:25:48;;;;;;;7.93;3.73;;;4.20;99.90;;;;;;5464428;26;19998;-88
2024/04/11 01:28:14;;;;;;;8.83;4.90;;;4.20;99.90;;;;;;5467639;26;20017;-87
2024/04/11 01:30:40;;;;;;;9.10;4.90;;;4.20;99.90;;;;;;5465118;26;20417;-88
2024/04/11 01:33:09;;;;;;;10.77;4.43;;;4.20;99.90;;;;;;5465345;26;20006;-88
2024/04/11 01:35:36;;;;;;;5.93;3.80;;;4.20;99.90;;;;;;5465968;26;20022;-88
2024/04/11 01:38:01;;;;;;;6.87;4.00;;;4.10;99.90;;;;;;5465635;26;20007;-88
2024/04/11 01:40:36;;;;;;;10.27;4.20;;;4.10;99.90;;;;;;5468614;26;20005;-87
2024/04/11 01:43:02;;;;;;;7.38;3.50;;;4.10;99.90;;;;;;5466963;26;20002;-88
2024/04/11 01:45:28;;;;;;;10.93;4.07;;;4.10;99.90;;;;;;5464477;26;20017;-92
2024/04/11 01:47:56;;;;;;;10.53;3.93;;;4.10;99.90;;;;;;5465077;26;20002;-88
2024/04/11 01:50:22;;;;;;;7.37;3.70;;;4.10;99.90;;;;;;5466197;26;20002;-88
2024/04/11 01:52:47;;;;;;;8.77;3.60;;;4.00;99.90;;;;;;5465461;26;20075;-87
2024/04/11 01:55:13;;;;;;;8.17;3.90;;;4.00;99.90;;;;;;5465052;26;20766;-88
2024/04/11 01:57:38;;;;;;;8.60;4.23;;;4.00;99.90;;;;;;5466505;26;20777;-88
2024/04/11 02:00:12;;;;;;;10.00;3.80;;;4.00;99.90;;;;;;5465001;26;20047;-87
2024/04/11 02:02:44;;;;;;;9.87;4.03;;;3.90;99.90;;;;;;5466927;26;19998;-88
2024/04/11 02:05:11;;;;;;;7.40;4.37;;;3.90;99.90;;;;;;5465994;26;19994;-88
2024/04/11 02:07:37;;;;;;;7.57;3.77;;;3.90;99.90;;;;;;5463368;26;20016;-88
2024/04/11 02:10:05;;;;;;;9.60;4.30;;;3.90;99.90;;;;;;5463691;26;20006;-88
2024/04/11 02:12:31;;;;;;;10.77;4.40;;;3.90;99.90;;;;;;5465269;26;20577;-90
2024/04/11 02:14:56;;;;;;;7.60;3.93;;;3.90;99.90;;;;;;5432303;26;20002;-88
2024/04/11 02:17:22;;;;;;;5.57;4.40;;;3.90;99.90;;;;;;5462167;26;20403;-88
2024/04/11 02:19:47;;;;;;;8.33;4.47;;;3.90;99.90;;;;;;5465631;26;20002;-88
2024/04/11 02:22:16;;;;;;;8.03;4.20;;;3.90;99.90;;;;;;5463044;26;20021;-88
2024/04/11 02:24:41;;;;;;;10.33;4.87;;;3.90;99.90;;;;;;5431516;26;20540;-88
2024/04/11 02:27:08;;;;;;;8.50;5.73;;;3.90;99.90;;;;;;5465129;26;20012;-88
2024/04/11 02:29:33;;;;;;;13.30;5.50;;;3.90;99.90;;;;;;5464474;26;20006;-87
2024/04/11 02:31:59;;;;;;;9.00;4.73;;;3.90;99.90;;;;;;5464677;26;20078;-88
2024/04/11 02:34:28;;;;;;;9.70;4.93;;;3.80;99.90;;;;;;5463797;26;20016;-88
2024/04/11 02:36:54;;;;;;;7.23;4.37;;;3.80;99.90;;;;;;5464886;26;20002;-88
2024/04/11 02:39:20;;;;;;;11.50;5.10;;;3.80;99.90;;;;;;5464655;26;20002;-88
2024/04/11 02:41:46;;;;;;;9.17;5.10;;;3.70;99.90;;;;;;5463407;26;20678;-88
2024/04/11 02:44:11;;;;;;;12.10;5.60;;;3.70;99.90;;;;;;5466861;26;20038;-89
2024/04/11 02:46:39;;;;;;;6.93;4.67;;;3.70;99.90;;;;;;5465102;26;20017;-89
2024/04/11 02:49:05;;;;;;;10.33;5.17;;;3.70;99.90;;;;;;5464563;26;20009;-87
2024/04/11 02:51:31;;;;;;;8.70;5.00;;;3.60;99.90;;;;;;5464951;26;20006;-88
2024/04/11 02:53:57;;;;;;;10.30;5.40;;;3.60;99.90;;;;;;5465393;26;20434;-88
2024/04/11 02:56:26;;;;;;;9.87;5.40;;;3.50;99.90;;;;;;5465509;26;20064;-88
2024/04/11 02:58:55;;;;;;;10.57;5.93;;;3.60;99.90;;;;;;5463806;26;20026;-88
2024/04/11 03:01:21;;;;;;;8.83;5.57;;;3.60;99.90;;;;;;5464518;26;20017;-88
2024/04/11 03:03:47;;;;;;;9.63;5.43;;;3.60;99.90;;;;;;5464148;26;20002;-88
2024/04/11 03:06:21;;;;;;;13.17;5.77;;;3.60;99.90;;;;;;5465353;26;20376;-88
2024/04/11 03:08:53;;;;;;;11.23;6.43;;;3.60;99.90;;;;;;5465078;26;20013;-88
2024/04/11 03:11:19;;;;;;;9.87;6.37;;;3.60;99.90;;;;;;5430214;26;20060;-88
2024/04/11 03:13:44;;;;;;;10.43;6.57;;;3.60;99.90;;;;;;5432587;26;20014;-88
2024/04/11 03:16:11;;;;;;;10.57;6.63;;;3.70;99.90;;;;;;5463665;26;20031;-88
2024/04/11 03:18:39;;;;;;;9.77;5.70;;;3.70;99.90;;;;;;5464780;26;20006;-88
2024/04/11 03:21:05;;;;;;;12.67;6.23;;;3.60;99.90;;;;;;5464704;26;20034;-88
2024/04/11 03:23:31;;;;;;;13.00;6.60;;;3.60;99.90;;;;;;5464181;26;20002;-88
2024/04/11 03:25:58;;;;;;;16.33;6.47;;;3.50;99.90;;;;;;5462425;26;20021;-89
2024/04/11 03:28:24;;;;;;;9.77;5.10;;;3.50;99.90;;;;;;5465238;26;20010;-88
2024/04/11 03:30:53;;;;;;;9.00;5.40;;;3.40;99.90;;;;;;5472044;26;20005;-89
2024/04/11 03:33:18;;;;;;;13.37;5.47;;;3.30;99.90;;;;;;5471539;26;20005;-88
2024/04/11 03:35:53;;;;;;;7.03;5.47;;;3.30;99.90;;;;;;5470243;26;21811;-89
2024/04/11 03:38:19;;;;;;;7.00;4.93;;;3.20;99.90;;;;;;5467557;26;20005;-87
2024/04/11 03:41:04;;;;;;;10.67;4.93;;;3.20;99.90;;;;;;5466898;26;19998;-87
2024/04/11 03:43:34;;;;;;;12.90;5.00;;;3.10;99.90;;;;;;5466055;26;20519;-89
2024/04/11 03:46:21;;;;;;;7.90;4.27;;;3.10;99.90;;;;;;5466229;26;20070;-88
2024/04/11 03:48:56;;;;;;;8.70;4.90;;;3.10;99.90;;;;;;5465982;26;19999;-88
2024/04/11 03:51:29;;;;;;;10.90;5.30;;;3.00;99.90;;;;;;5466994;26;20092;-86
2024/04/11 03:53:58;;;;;;;8.57;4.53;;;3.00;99.90;;;;;;5466007;26;20458;-87
2024/04/11 03:56:27;;;;;;;10.47;5.10;;;3.00;99.90;;;;;;5466503;26;20014;-86
2024/04/11 03:58:56;;;;;;;6.50;4.77;;;3.00;99.90;;;;;;5467030;26;20589;-87
2024/04/11 04:01:24;;;;;;;8.67;5.30;;;3.00;99.90;;;;;;5467311;26;20312;-87
2024/04/11 04:03:54;;;;;;;8.73;4.90;;;3.00;99.90;;;;;;5466223;26;20087;-87
2024/04/11 04:06:21;;;;;;;8.93;5.03;;;3.00;99.90;;;;;;5469142;26;20002;-87
2024/04/11 04:08:48;;;;;;;9.83;4.90;;;3.00;99.90;;;;;;5467228;26;20014;-88
2024/04/11 04:11:14;;;;;;;7.60;4.67;;;2.90;99.90;;;;;;5467918;26;20005;-88
2024/04/11 04:13:41;;;;;;;11.07;5.13;;;2.90;99.90;;;;;;5465384;26;20493;-88
2024/04/11 04:16:10;;;;;;;9.00;4.83;;;2.90;99.90;;;;;;5465304;26;20002;-87
2024/04/11 04:18:37;;;;;;;13.67;5.63;;;2.90;99.90;;;;;;5466519;26;20028;-87
2024/04/11 04:21:04;;;;;;;11.23;6.17;;;2.90;99.90;;;;;;5435057;26;20026;-87
2024/04/11 04:23:30;;;;;;;11.63;6.80;;;2.90;99.90;;;;;;5430810;26;20016;-87
2024/04/11 04:26:00;;;;;;;11.90;5.67;;;2.90;99.90;;;;;;5467037;26;19998;-85
2024/04/11 04:28:33;;;;;;;11.47;5.80;;;2.80;99.90;;;;;;5463272;26;20051;-88
2024/04/11 04:31:14;;;;;;;14.97;5.73;;;2.90;99.90;;;;;;5463753;26;20021;-88
2024/04/11 04:33:47;;;;;;;11.30;6.17;;;2.80;99.90;;;;;;5466728;26;20490;-87
2024/04/11 04:36:16;;;;;;;9.60;5.50;;;2.90;99.90;;;;;;5463589;26;20013;-89
2024/04/11 04:38:44;;;;;;;8.30;5.37;;;2.90;99.90;;;;;;5463217;26;20020;-87
2024/04/11 04:41:10;;;;;;;9.83;6.27;;;2.90;99.90;;;;;;5462827;26;20070;-87
2024/04/11 04:43:36;;;;;;;12.43;6.30;;;2.90;99.90;;;;;;5463720;26;20012;-88
2024/04/11 04:46:02;;;;;;;10.87;5.40;;;2.90;99.90;;;;;;5465012;26;20013;-87
2024/04/11 04:48:29;;;;;;;11.10;6.57;;;2.90;99.90;;;;;;5465346;26;20002;-88
2024/04/11 04:50:55;;;;;;;11.47;6.03;;;2.90;99.90;;;;;;5464176;26;20026;-89
2024/04/11 04:53:21;;;;;;;11.80;5.63;;;2.90;99.90;;;;;;5464432;26;20006;-87
2024/04/11 04:55:46;;;;;;;13.93;6.50;;;3.00;99.90;;;;;;5463690;26;20052;-88
2024/04/11 04:58:12;;;;;;;10.13;5.80;;;3.00;99.90;;;;;;5432793;26;20017;-83
2024/04/11 05:00:37;;;;;;;9.23;5.77;;;3.00;99.90;;;;;;5464619;26;20010;-83
2024/04/11 05:03:08;;;;;;;8.37;5.50;;;3.00;99.90;;;;;;5463619;26;20010;-83
2024/04/11 05:05:37;;;;;;;11.97;5.40;;;3.00;99.90;;;;;;5466124;26;20002;-84
2024/04/11 05:08:07;;;;;;;10.40;5.70;;;3.10;99.90;;;;;;5434286;26;20784;-83
2024/04/11 05:10:34;;;;;;;10.10;5.57;;;3.10;99.90;;;;;;5468002;26;20005;-85
2024/04/11 05:13:00;;;;;;;10.03;5.87;;;3.10;99.90;;;;;;5433231;26;20124;-84
2024/04/11 05:15:25;;;;;;;10.90;6.33;;;3.20;99.90;;;;;;5470087;26;20077;-84
2024/04/11 05:17:51;;;;;;;10.20;6.00;;;3.20;99.90;;;;;;5469162;26;20002;-85
2024/04/11 05:20:27;;;;;;;10.93;6.10;;;3.20;99.90;;;;;;5468548;26;20054;-86
2024/04/11 05:22:53;;;;;;;11.10;5.83;;;3.30;99.90;;;;;;5467192;26;19995;-87
2024/04/11 05:25:19;;;;;;;7.23;5.00;;;3.30;99.90;;;;;;5471716;26;19998;-86
2024/04/11 05:27:46;;;;;;;16.73;5.20;;;3.40;99.90;;;;;;5467595;26;20403;-87
2024/04/11 05:30:12;;;;;;;10.93;5.43;;;3.40;99.90;;;;;;5435455;26;20002;-87
2024/04/11 05:32:39;;;;;;;9.20;5.23;;;3.40;99.90;;;;;;5468400;26;20010;-87
2024/04/11 05:35:09;;;;;;;9.67;6.10;;;3.50;99.90;;;;;;5465776;26;20046;-87
2024/04/11 05:37:44;;;;;;;14.93;6.10;;;3.60;99.90;;;;;;5463718;26;20012;-87
2024/04/11 05:40:12;;;;;;;8.93;5.63;;;3.60;99.90;;;;;;5465634;26;20320;-84
2024/04/11 05:42:44;;;;;;;9.87;5.73;;;3.70;99.90;;;;;;5466907;26;20043;-88
2024/04/11 05:45:19;;;;;;;11.00;6.50;;;3.80;99.90;;;;;;5431247;26;20002;-88
2024/04/11 05:47:46;;;;;;;10.30;6.63;;;3.90;99.90;;;;;;5456137;26;20034;-87
2024/04/11 05:50:15;;;;;;;17.80;6.77;;;4.00;99.90;;;;;;5462756;26;20021;-87
2024/04/11 05:52:43;;;;;;;14.13;7.20;;;4.10;99.90;;;;;;5461707;26;20002;-87
2024/04/11 05:55:12;;;;;;;11.63;8.17;;;4.20;99.90;;;;;;5460539;26;20034;-87
2024/04/11 05:57:38;;;;;;;13.10;8.00;;;4.30;99.90;;;;;;5463366;26;19998;-88
2024/04/11 06:00:08;;;;;;;11.70;7.00;;;4.40;99.90;;;;;;5462410;26;20082;-87
2024/04/11 06:02:38;;;;;;;15.10;8.00;;;4.50;99.90;;;;;;5429113;26;20007;-88
2024/04/11 06:05:06;;;;;;;12.63;8.20;;;4.70;99.90;;;;;;5463471;26;19999;-88
2024/04/11 06:07:32;;;;;;;16.00;8.27;;;4.70;99.90;;;;;;5430520;26;20002;-88
2024/04/11 06:10:00;;;;;;;14.43;8.40;;;4.90;99.90;;;;;;5463710;26;20017;-87
2024/04/11 06:12:26;;;;;;;13.07;8.53;;;4.90;99.90;;;;;;5464963;26;20017;-88
2024/04/11 06:14:53;;;;;;;14.77;7.63;;;5.00;99.90;;;;;;5464591;26;20339;-89
2024/04/11 06:17:19;;;;;;;14.10;8.23;;;5.20;99.90;;;;;;5464812;26;20713;-89
2024/04/11 06:19:45;;;;;;;16.80;8.03;;;5.20;99.90;;;;;;5463571;26;20002;-89
2024/04/11 06:22:11;;;;;;;15.03;8.60;;;5.30;99.90;;;;;;5463585;26;20014;-89
2024/04/11 06:24:38;;;;;;;17.27;8.90;;;5.50;99.90;;;;;;5469166;26;20360;-87
2024/04/11 06:27:05;;;;;;;15.20;9.60;;;5.60;99.90;;;;;;5468458;26;20006;-88
2024/04/11 06:29:37;;;;;;;16.03;9.80;;;5.70;99.90;;;;;;5463807;26;20002;-88
2024/04/11 06:32:06;;;;;;;14.97;9.23;;;5.80;99.90;;;;;;5463808;26;20018;-88
2024/04/11 06:34:33;;;;;;;14.80;9.23;;;5.90;99.90;;;;;;5455570;26;20912;-89
2024/04/11 06:36:59;;;;;;;14.87;10.10;;;6.00;99.90;;;;;;5461608;26;20002;-88
2024/04/11 06:39:25;;;;;;;13.70;10.40;;;6.20;99.90;;;;;;5459669;26;20020;-87
2024/04/11 06:41:54;;;;;;;18.53;9.93;;;6.30;99.90;;;;;;5461237;26;20012;-88
2024/04/11 06:44:21;;;;;;;14.43;9.50;;;6.40;99.90;;;;;;5463785;26;20059;-87
2024/04/11 06:46:49;;;;;;;19.93;10.63;;;6.50;99.90;;;;;;5464814;26;19994;-88
2024/04/11 06:49:14;;;;;;;15.00;9.07;;;6.60;99.90;;;;;;5462547;26;20011;-88
2024/04/11 06:51:40;;;;;;;23.23;10.73;;;6.80;99.90;;;;;;5463430;26;20002;-88
2024/04/11 06:54:09;;;;;;;18.33;10.67;;;6.90;99.90;;;;;;5461979;26;20458;-88
2024/04/11 06:56:35;;;;;;;14.80;10.30;;;7.00;99.90;;;;;;5462813;26;20763;-89
2024/04/11 06:59:01;;;;;;;19.80;10.73;;;7.10;99.90;;;;;;5464744;26;20002;-88
2024/04/11 07:01:26;;;;;;;17.63;10.10;;;7.20;99.90;;;;;;5463383;26;20013;-87
2024/04/11 07:03:53;;;;;;;17.33;10.53;;;7.30;99.90;;;;;;5468497;26;20010;-88
2024/04/11 07:06:22;;;;;;;18.47;10.43;;;7.40;99.90;;;;;;5469099;26;20637;-88
2024/04/11 07:08:54;;;;;;;19.97;11.40;;;7.50;99.90;;;;;;5462589;26;20017;-88
2024/04/11 07:11:27;;;;;;;14.47;10.37;;;7.60;99.90;;;;;;5462457;26;20002;-88
2024/04/11 07:13:59;;;;;;;20.77;11.03;;;7.70;99.90;;;;;;5465137;26;19994;-88
2024/04/11 07:16:32;;;;;;;14.43;9.87;;;7.70;99.90;;;;;;5468197;26;20012;-88
2024/04/11 07:19:02;;;;;;;14.63;9.67;;;7.90;99.90;;;;;;5430740;26;20002;-88
2024/04/11 07:21:34;;;;;;;16.47;10.50;;;8.00;99.90;;;;;;5467825;26;19997;-88
2024/04/11 07:24:03;;;;;;;14.87;9.70;;;8.10;99.90;;;;;;5466548;26;21488;-89
2024/04/11 07:26:30;;;;;;;15.27;10.43;;;8.20;99.90;;;;;;5465658;26;20010;-88
2024/04/11 07:29:01;;;;;;;15.50;9.80;;;8.30;99.90;;;;;;5466047;26;20017;-88
2024/04/11 07:31:28;;;;;;;16.63;10.47;;;8.50;99.90;;;;;;5468228;26;20002;-88
2024/04/11 07:33:55;;;;;;;12.73;8.47;;;8.60;99.90;;;;;;5467717;26;20218;-87
2024/04/11 07:36:22;;;;;;;15.03;8.80;;;8.80;99.90;;;;;;5466313;26;20005;-88
2024/04/11 07:38:48;;;;;;;12.37;8.13;;;8.80;99.90;;;;;;5432059;26;20003;-88
2024/04/11 07:41:19;;;;;;;10.70;8.10;;;9.00;99.90;;;;;;5467277;26;20046;-88
2024/04/11 07:43:45;;;;;;;11.87;7.10;;;9.00;99.90;;;;;;5465935;26;20149;-88
2024/04/11 07:46:15;;;;;;;13.37;7.23;;;9.20;99.90;;;;;;5466526;26;19995;-87
2024/04/11 07:48:51;;;;;;;15.40;7.83;;;9.30;99.90;;;;;;5466440;26;20039;-87
2024/04/11 07:51:20;;;;;;;15.23;7.87;;;9.40;99.90;;;;;;5466232;26;20013;-87
2024/04/11 07:53:47;;;;;;;11.53;6.63;;;9.60;99.90;;;;;;5465699;26;20067;-87
2024/04/11 07:56:20;;;;;;;11.13;6.70;;;9.70;99.90;;;;;;5467125;26;20010;-88
2024/04/11 07:58:49;;;;;;;13.17;7.13;;;9.80;99.90;;;;;;5467670;26;19991;-87
2024/04/11 08:01:22;;;;;;;10.70;5.70;;;10.00;99.90;;;;;;5466122;26;20006;-88
2024/04/11 08:03:49;;;;;;;10.53;6.10;;;10.10;99.90;;;;;;5463196;26;20003;-87
2024/04/11 08:06:16;;;;;;;10.77;6.43;;;10.20;99.90;;;;;;5465619;26;20110;-87
2024/04/11 08:08:43;;;;;;;15.30;6.50;;;10.30;99.90;;;;;;5463302;26;20038;-88
2024/04/11 08:11:10;;;;;;;14.60;5.90;;;10.30;99.90;;;;;;5466842;26;20044;-88
2024/04/11 08:13:36;;;;;;;11.77;5.90;;;10.40;99.90;;;;;;5466684;26;19995;-88
2024/04/11 08:16:04;;;;;;;14.27;5.53;;;10.50;99.90;;;;;;5461331;26;20010;-89
2024/04/11 08:18:31;;;;;;;8.70;4.87;;;10.60;99.90;;;;;;5466344;26;20005;-87
2024/04/11 08:20:57;;;;;;;12.50;5.23;;;10.70;99.90;;;;;;5465875;26;20062;-88
2024/04/11 08:23:24;;;;;;;11.30;5.80;;;10.80;99.90;;;;;;5467652;26;20010;-88
2024/04/11 08:25:53;;;;;;;12.07;5.77;;;10.90;99.90;;;;;;5431127;26;20054;-87
2024/04/11 08:28:20;;;;;;;14.43;5.73;;;11.00;99.90;;;;;;5465455;26;20010;-87
2024/04/11 08:30:46;;;;;;;10.37;6.00;;;11.10;99.90;;;;;;5464378;26;20014;-88
2024/04/11 08:33:12;;;;;;;9.93;6.17;;;11.10;99.90;;;;;;5468085;26;19999;-87
2024/04/11 08:35:37;;;;;;;8.17;5.50;;;11.20;99.90;;;;;;5466983;26;20055;-86
2024/04/11 08:38:06;;;;;;;11.23;5.30;;;11.40;99.90;;;;;;5465304;26;19990;-87
2024/04/11 08:40:34;;;;;;;10.45;5.15;;;11.50;99.90;;;;;;5431379;26;20065;-89
2024/04/11 08:43:01;;;;;;;9.90;5.77;;;11.60;99.90;;;;;;5464314;26;20342;-87
2024/04/11 08:45:30;;;;;;;9.77;5.20;;;11.60;99.90;;;;;;5466229;26;20489;-88
2024/04/11 08:47:56;;;;;;;8.48;5.50;;;11.60;99.90;;;;;;5466272;26;20009;-88
2024/04/11 08:50:21;;;;;;;12.73;5.35;;;11.70;99.90;;;;;;5466564;26;20002;-88
2024/04/11 08:52:50;;;;;;;11.57;5.40;;;11.80;99.90;;;;;;5432620;26;20011;-88
2024/04/11 08:55:16;;;;;;;11.13;4.88;;;11.80;99.90;;;;;;5463940;26;20362;-89
2024/04/11 08:57:42;;;;;;;13.23;5.97;;;11.90;99.90;;;;;;5464409;26;20545;-88
2024/04/11 09:00:12;;;;;;;11.00;5.03;;;11.90;99.90;;;;;;5465453;26;20026;-88
2024/04/11 09:02:44;;;;;;;8.05;5.85;;;12.10;99.90;;;;;;5463503;26;20009;-89
2024/04/11 09:05:12;;;;;;;11.83;6.53;;;12.30;99.90;;;;;;5464051;26;20367;-89
2024/04/11 09:07:38;;;;;;;9.23;6.40;;;12.30;99.90;;;;;;5464677;26;20020;-89
2024/04/11 09:10:06;;;;;;;6.30;5.40;;;12.50;99.90;;;;;;5431259;26;20014;-88
2024/04/11 09:12:32;;;;;;;10.15;5.85;;;12.70;99.90;;;;;;5466148;26;20009;-89
2024/04/11 09:14:58;;;;;;;9.07;5.03;;;12.80;99.90;;;;;;5459369;26;20005;-88
2024/04/11 09:17:24;;;;;;;9.90;5.53;;;12.90;99.90;;;;;;5461783;26;20002;-89
2024/04/11 09:20:05;;;;;;;10.07;5.40;;;13.10;99.90;;;;;;5430048;26;20541;-90
2024/04/11 09:22:33;;;;;;;13.18;5.55;;;13.20;99.90;;;;;;5465107;26;20002;-89
2024/04/11 09:25:02;;;;;;;10.60;5.47;;;13.40;99.90;;;;;;5467195;26;19990;-89
2024/04/11 09:27:28;;;;;;;8.52;5.38;;;13.60;99.90;;;;;;5465978;26;20043;-90
2024/04/11 09:29:56;;;;;;;8.30;5.70;;;13.70;99.90;;;;;;5465657;26;19994;-89
2024/04/11 09:32:24;;;;;;;9.63;5.80;;;13.80;99.90;;;;;;5465817;26;20769;-90
2024/04/11 09:34:56;;;;;;;9.70;5.88;;;13.90;99.90;;;;;;5466004;26;20002;-89
2024/04/11 09:37:26;;;;;;;10.15;5.97;;;14.10;99.90;;;;;;5465065;26;20464;-90
2024/04/11 09:39:56;;;;;;;11.75;6.22;;;14.30;99.90;;;;;;5465238;26;20732;-90
2024/04/11 09:42:26;;;;;;;8.13;5.95;;;14.40;99.90;;;;;;5464854;26;20006;-89
2024/04/11 09:44:53;;;;;;;13.30;6.10;;;14.50;99.90;;;;;;5465515;26;20053;-89
2024/04/11 09:47:32;;;;;;;10.55;5.95;;;14.80;99.90;;;;;;5461668;26;20010;-90
2024/04/11 09:50:00;;;;;;;13.63;6.28;;;14.90;99.90;;;;;;5432269;26;20006;-90
2024/04/11 09:52:34;;;;;;;12.38;6.57;;;15.00;99.90;;;;;;5465578;26;20469;-90
2024/04/11 09:55:03;;;;;;;6.88;5.80;;;15.10;99.90;;;;;;5465676;26;19998;-90
2024/04/11 09:57:31;;;;;;;10.40;6.15;;;15.00;99.90;;;;;;5431431;26;20005;-90
2024/04/11 09:59:57;;;;;;;8.85;5.70;;;14.70;99.90;;;;;;5467145;26;20022;-78
2024/04/11 10:02:25;;;;;;;8.30;6.30;;;14.40;99.90;;;;;;5470866;26;20007;-78
2024/04/11 10:04:57;;;;;;;8.00;5.55;;;14.40;99.90;;;;;;5467563;26;21939;-78
2024/04/11 10:07:26;;;;;;;9.02;6.00;;;14.50;99.90;;;;;;5467925;26;19998;-78
2024/04/11 10:09:57;;;;;;;8.05;5.82;;;14.60;99.90;;;;;;5469816;26;20038;-78
2024/04/11 10:12:28;;;;;;;8.27;5.05;;;14.60;99.90;;;;;;5467730;26;20014;-78
2024/04/11 10:14:57;;;;;;;12.30;6.00;;;14.60;99.90;;;;;;5469801;26;20078;-77
2024/04/11 10:17:29;;;;;;;8.60;4.90;;;14.40;99.90;;;;;;5467814;26;20002;-78
2024/04/11 10:20:01;;;;;;;9.63;5.22;;;14.30;99.90;;;;;;5469936;26;20006;-81
2024/04/11 10:22:26;;;;;;;6.00;4.55;;;14.40;99.90;;;;;;5470321;26;20002;-77
2024/04/11 10:25:06;;;;;;;9.02;5.10;;;14.60;99.90;;;;;;5469001;26;19994;-78
2024/04/11 10:27:34;;;;;;;10.50;4.88;;;14.70;99.90;;;;;;5469761;26;20009;-78
2024/04/11 10:30:05;;;;;;;9.75;5.43;;;15.00;99.90;;;;;;5470170;26;20048;-76
2024/04/11 10:32:39;;;;;;;7.75;4.53;;;15.30;99.90;;;;;;5472729;26;20009;-77
2024/04/11 10:35:07;;;;;;;5.53;4.20;;;15.50;99.90;;;;;;5472155;26;19994;-78
2024/04/11 10:37:39;;;;;;;6.95;5.20;;;15.80;99.90;;;;;;5465226;26;20105;-78
2024/04/11 10:40:09;;;;;;;10.02;5.40;;;15.90;99.90;;;;;;5467363;26;20043;-78
2024/04/11 10:42:36;;;;;;;8.68;4.70;;;15.80;99.90;;;;;;5469957;26;20021;-77
2024/04/11 10:45:11;;;;;;;8.02;4.72;;;15.60;99.90;;;;;;5469992;26;19990;-77
2024/04/11 10:47:38;;;;;;;10.30;5.30;;;15.30;99.90;;;;;;5428873;26;19994;-78
2024/04/11 10:50:15;;;;;;;8.57;5.70;;;15.20;99.90;;;;;;5469230;26;20010;-78
2024/04/11 10:52:45;;;;;;;9.73;5.50;;;15.30;99.90;;;;;;5469607;26;19995;-77
2024/04/11 10:55:22;;;;;;;8.80;5.40;;;15.20;99.90;;;;;;5436387;26;19995;-78
2024/04/11 10:58:00;;;;;;;8.75;5.57;;;15.00;99.90;;;;;;5470120;26;19995;-78
2024/04/11 11:01:07;;;;;;;9.73;5.47;;;15.00;99.90;;;;;;5467085;26;20021;-77
2024/04/11 11:03:12;;;;;;;8.43;5.05;;;15.00;99.90;;;;;;5469783;26;20006;-77
2024/04/11 11:05:42;;;;;;;8.48;5.00;;;15.10;99.90;;;;;;5435007;26;20659;-78
2024/04/11 11:08:10;;;;;;;8.68;5.05;;;15.10;99.90;;;;;;5469075;26;20663;-78
2024/04/11 11:10:36;;;;;;;7.47;4.95;;;15.20;99.90;;;;;;5466940;26;19998;-78
2024/04/11 11:13:04;;;;;;;8.68;4.65;;;15.20;99.90;;;;;;5469019;26;20047;-78
2024/04/11 11:15:31;;;;;;;6.63;4.70;;;15.30;99.90;;;;;;5468583;26;20768;-79
2024/04/11 11:17:56;;;;;;;7.28;4.65;;;15.50;99.90;;;;;;5469250;26;20050;-79
2024/04/11 11:20:24;;;;;;;9.57;5.30;;;15.70;99.90;;;;;;5468056;26;19998;-79
2024/04/11 11:22:51;;;;;;;7.03;5.13;;;15.70;99.90;;;;;;5466793;26;20026;-78
2024/04/11 11:25:19;;;;;;;6.57;5.50;;;15.60;99.90;;;;;;5466667;26;20331;-78
2024/04/11 11:27:48;;;;;;;8.57;5.10;;;15.60;99.90;;;;;;5466728;26;20135;-78
2024/04/11 11:30:15;;;;;;;6.38;4.93;;;15.50;99.90;;;;;;5467350;26;20022;-78
2024/04/11 11:32:43;;;;;;;10.18;5.20;;;15.50;99.90;;;;;;5469060;26;20343;-78
2024/04/11 11:35:11;;;;;;;6.68;4.85;;;15.60;99.90;;;;;;5468069;26;20038;-82
2024/04/11 11:37:38;;;;;;;7.10;5.25;;;15.60;99.90;;;;;;5460748;26;19994;-77
2024/04/11 11:40:37;;;;;;;9.18;5.60;;;15.60;99.90;;;;;;5457436;26;20022;-77
2024/04/11 11:42:52;;;;;;;8.35;5.65;;;15.50;99.90;;;;;;5457044;26;19998;-77
2024/04/11 11:45:27;;;;;;;7.10;5.30;;;15.70;99.90;;;;;;5458826;26;20061;-78
2024/04/11 11:47:57;;;;;;;8.30;5.13;;;15.80;99.90;;;;;;5456055;26;20030;-78
2024/04/11 11:50:23;;;;;;;7.95;5.35;;;15.80;99.90;;;;;;5458101;26;19998;-78
2024/04/11 11:52:49;;;;;;;7.40;5.53;;;15.90;99.90;;;;;;5462749;26;20028;-78
2024/04/11 11:55:19;;;;;;;6.43;4.57;;;15.90;99.90;;;;;;5459986;26;20009;-78
2024/04/11 11:57:51;;;;;;;6.20;4.82;;;15.90;99.90;;;;;;5461804;26;20335;-78
2024/04/11 12:00:21;;;;;;;6.43;4.60;;;16.00;99.90;;;;;;5465248;26;19998;-78
2024/04/11 12:02:51;;;;;;;8.23;5.50;;;16.00;99.90;;;;;;5463701;26;20029;-79
2024/04/11 12:05:23;;;;;;;8.43;5.03;;;16.10;99.90;;;;;;5462010;26;20006;-79
2024/04/11 12:07:58;;;;;;;11.43;5.28;;;16.10;99.90;;;;;;5462889;26;20502;-79
2024/04/11 12:13:18;;;;;;;7.88;5.75;;;16.00;99.90;;;;;;5462802;26;20074;-78
2024/04/11 12:15:48;;;;;;;11.43;4.95;;;15.80;99.90;;;;;;5462409;26;20019;-78
2024/04/11 12:18:16;;;;;;;7.35;5.25;;;15.50;99.90;;;;;;5461886;26;20054;-78
2024/04/11 12:20:43;;;;;;;7.28;5.18;;;15.50;99.90;;;;;;5461328;26;20002;-78
2024/04/11 12:23:09;;;;;;;6.45;5.43;;;15.40;99.90;;;;;;5461323;26;20006;-78
2024/04/11 12:25:36;;;;;;;8.30;5.55;;;15.50;99.90;;;;;;5461916;26;20117;-79
2024/04/11 12:28:04;;;;;;;6.88;4.97;;;15.40;99.90;;;;;;5465237;26;21122;-78
2024/04/11 12:30:32;;;;;;;6.55;5.03;;;15.40;99.90;;;;;;5461409;26;20002;-77
2024/04/11 12:33:00;;;;;;;7.85;5.60;;;15.50;99.90;;;;;;5461109;26;20008;-78
2024/04/11 12:35:29;;;;;;;8.13;5.25;;;15.90;99.90;;;;;;5460590;26;20011;-78
2024/04/11 12:37:56;;;;;;;7.63;5.40;;;16.00;99.90;;;;;;5459570;26;20013;-78
2024/04/11 12:40:33;;;;;;;8.88;5.30;;;16.00;99.90;;;;;;5460579;26;20112;-79
2024/04/11 12:43:01;;;;;;;10.65;5.93;;;16.00;99.90;;;;;;5459917;26;20017;-78
2024/04/11 12:45:31;;;;;;;8.60;5.63;;;16.10;99.90;;;;;;5460558;26;20005;-78
2024/04/11 12:48:05;;;;;;;8.10;5.00;;;16.30;99.90;;;;;;5458853;26;20002;-77
2024/04/11 12:50:35;;;;;;;6.20;5.40;;;16.50;99.90;;;;;;5454044;26;20012;-77
2024/04/11 12:53:10;;;;;;;6.32;5.20;;;16.80;99.90;;;;;;5458122;26;20002;-77
2024/04/11 12:55:38;;;;;;;;;;;17.00;99.90;;;;;;5459898;26;20013;-77